sensor_id;sensor_type;location;lat;lon;timestamp;P1;P2;P0
57411;PMS5003;43247;52.828;-8.980;2023-04-03T00:00:42;5;5;
57411;PMS5003;43247;52.828;-8.980;2023-04-03T00:01:42;6;5;
57411;PMS5003;43247;52.828;-8.980;2023-04-03T00:02:42;6;6;
57411;PMS5003;43247;52.828;-8.980;2023-04-03T00:03:42;6;6;
57411;PMS5003;43247;52.828;-8.980;2023-04-03T00:04:42;7;7;
57411;PMS5003;43247;52.828;-8.980;2023-04-03T00:05:43;5;5;
57411;PMS5003;43247;52.828;-8.980;2023-04-03T00:06:43;6;6;
57411;PMS5003;43247;52.828;-8.980;2023-04-03T00:07:43;8;7;
57411;PMS5003;43247;52.828;-8.980;2023-04-03T00:08:44;4;4;
57411;PMS5003;43247;52.828;-8.980;2023-04-03T00:09:44;6;6;
57411;PMS5003;43247;52.828;-8.980;2023-04-03T00:10:44;7;7;
57411;PMS5003;43247;52.828;-8.980;2023-04-03T00:11:45;6;6;
57411;PMS5003;43247;52.828;-8.980;2023-04-03T00:12:44;6;6;
57411;PMS5003;43247;52.828;-8.980;2023-04-03T00:13:45;6;6;
57411;PMS5003;43247;52.828;-8.980;2023-04-03T00:14:45;6;6;
57411;PMS5003;43247;52.828;-8.980;2023-04-03T00:15:45;4;4;
57411;PMS5003;43247;52.828;-8.980;2023-04-03T00:16:45;7;6;
57411;PMS5003;43247;52.828;-8.980;2023-04-03T00:17:45;4;4;
57411;PMS5003;43247;52.828;-8.980;2023-04-03T00:18:46;6;6;
57411;PMS5003;43247;52.828;-8.980;2023-04-03T00:19:46;5;5;
57411;PMS5003;43247;52.828;-8.980;2023-04-03T00:20:46;5;5;
57411;PMS5003;43247;52.828;-8.980;2023-04-03T00:21:46;6;6;
57411;PMS5003;43247;52.828;-8.980;2023-04-03T00:22:46;7;5;
57411;PMS5003;43247;52.828;-8.980;2023-04-03T00:23:46;7;7;
57411;PMS5003;43247;52.828;-8.980;2023-04-03T00:24:47;7;5;
57411;PMS5003;43247;52.828;-8.980;2023-04-03T00:25:47;8;5;
57411;PMS5003;43247;52.828;-8.980;2023-04-03T00:26:47;6;6;
57411;PMS5003;43247;52.828;-8.980;2023-04-03T00:27:47;7;7;
57411;PMS5003;43247;52.828;-8.980;2023-04-03T00:28:47;5;5;
57411;PMS5003;43247;52.828;-8.980;2023-04-03T00:29:48;6;6;
57411;PMS5003;43247;52.828;-8.980;2023-04-03T00:30:48;5;5;
57411;PMS5003;43247;52.828;-8.980;2023-04-03T00:31:48;7;7;
57411;PMS5003;43247;52.828;-8.980;2023-04-03T00:32:48;5;5;
57411;PMS5003;43247;52.828;-8.980;2023-04-03T00:33:48;6;5;
57411;PMS5003;43247;52.828;-8.980;2023-04-03T00:34:48;7;6;
57411;PMS5003;43247;52.828;-8.980;2023-04-03T00:35:49;5;5;
57411;PMS5003;43247;52.828;-8.980;2023-04-03T00:36:49;5;5;
57411;PMS5003;43247;52.828;-8.980;2023-04-03T00:37:50;7;6;
57411;PMS5003;43247;52.828;-8.980;2023-04-03T00:38:49;8;6;
57411;PMS5003;43247;52.828;-8.980;2023-04-03T00:39:49;8;7;
57411;PMS5003;43247;52.828;-8.980;2023-04-03T00:40:50;5;5;
57411;PMS5003;43247;52.828;-8.980;2023-04-03T00:41:50;5;5;
57411;PMS5003;43247;52.828;-8.980;2023-04-03T00:42:51;4;4;
57411;PMS5003;43247;52.828;-8.980;2023-04-03T00:43:50;6;5;
57411;PMS5003;43247;52.828;-8.980;2023-04-03T00:45:51;6;5;
57411;PMS5003;43247;52.828;-8.980;2023-04-03T00:46:51;6;6;
57411;PMS5003;43247;52.828;-8.980;2023-04-03T00:47:51;5;4;
57411;PMS5003;43247;52.828;-8.980;2023-04-03T00:48:52;6;6;
57411;PMS5003;43247;52.828;-8.980;2023-04-03T00:49:52;8;7;
57411;PMS5003;43247;52.828;-8.980;2023-04-03T00:50:53;8;6;
57411;PMS5003;43247;52.828;-8.980;2023-04-03T00:51:53;5;5;
57411;PMS5003;43247;52.828;-8.980;2023-04-03T00:52:53;4;4;
57411;PMS5003;43247;52.828;-8.980;2023-04-03T00:53:54;5;5;
57411;PMS5003;43247;52.828;-8.980;2023-04-03T00:54:54;6;6;
57411;PMS5003;43247;52.828;-8.980;2023-04-03T00:55:55;5;5;
57411;PMS5003;43247;52.828;-8.980;2023-04-03T00:56:55;5;5;
57411;PMS5003;43247;52.828;-8.980;2023-04-03T00:57:55;8;6;
57411;PMS5003;43247;52.828;-8.980;2023-04-03T00:58:56;5;5;
57411;PMS5003;43247;52.828;-8.980;2023-04-03T00:59:57;8;6;
57411;PMS5003;43247;52.828;-8.980;2023-04-03T01:00:56;5;5;
57411;PMS5003;43247;52.828;-8.980;2023-04-03T01:01:56;7;7;
57411;PMS5003;43247;52.828;-8.980;2023-04-03T01:02:56;7;7;
57411;PMS5003;43247;52.828;-8.980;2023-04-03T01:03:58;6;6;
57411;PMS5003;43247;52.828;-8.980;2023-04-03T01:04:56;7;6;
57411;PMS5003;43247;52.828;-8.980;2023-04-03T01:05:56;7;5;
57411;PMS5003;43247;52.828;-8.980;2023-04-03T01:06:57;9;6;
57411;PMS5003;43247;52.828;-8.980;2023-04-03T01:07:57;8;7;
57411;PMS5003;43247;52.828;-8.980;2023-04-03T01:08:57;5;5;
57411;PMS5003;43247;52.828;-8.980;2023-04-03T01:09:58;8;7;
57411;PMS5003;43247;52.828;-8.980;2023-04-03T01:10:57;7;6;
57411;PMS5003;43247;52.828;-8.980;2023-04-03T01:12:58;7;7;
57411;PMS5003;43247;52.828;-8.980;2023-04-03T01:13:58;6;5;
57411;PMS5003;43247;52.828;-8.980;2023-04-03T01:15:00;5;5;
57411;PMS5003;43247;52.828;-8.980;2023-04-03T01:16:00;7;5;
57411;PMS5003;43247;52.828;-8.980;2023-04-03T01:16:59;7;7;
57411;PMS5003;43247;52.828;-8.980;2023-04-03T01:17:59;7;7;
57411;PMS5003;43247;52.828;-8.980;2023-04-03T01:18:59;6;6;
57411;PMS5003;43247;52.828;-8.980;2023-04-03T01:20:07;5;5;
57411;PMS5003;43247;52.828;-8.980;2023-04-03T01:22:03;8;5;
57411;PMS5003;43247;52.828;-8.980;2023-04-03T01:23:03;7;5;
57411;PMS5003;43247;52.828;-8.980;2023-04-03T01:24:05;4;4;
57411;PMS5003;43247;52.828;-8.980;2023-04-03T01:25:01;6;5;
57411;PMS5003;43247;52.828;-8.980;2023-04-03T01:26:01;5;5;
57411;PMS5003;43247;52.828;-8.980;2023-04-03T01:27:03;8;7;
57411;PMS5003;43247;52.828;-8.980;2023-04-03T01:28:02;5;5;
57411;PMS5003;43247;52.828;-8.980;2023-04-03T01:29:03;5;5;
57411;PMS5003;43247;52.828;-8.980;2023-04-03T01:30:03;7;6;
57411;PMS5003;43247;52.828;-8.980;2023-04-03T01:31:06;5;5;
57411;PMS5003;43247;52.828;-8.980;2023-04-03T01:32:04;5;5;
57411;PMS5003;43247;52.828;-8.980;2023-04-03T01:33:04;5;5;
57411;PMS5003;43247;52.828;-8.980;2023-04-03T01:34:04;5;5;
57411;PMS5003;43247;52.828;-8.980;2023-04-03T01:35:06;4;4;
57411;PMS5003;43247;52.828;-8.980;2023-04-03T01:36:05;5;5;
57411;PMS5003;43247;52.828;-8.980;2023-04-03T01:37:05;6;5;
57411;PMS5003;43247;52.828;-8.980;2023-04-03T01:38:05;7;7;
57411;PMS5003;43247;52.828;-8.980;2023-04-03T01:39:05;8;6;
57411;PMS5003;43247;52.828;-8.980;2023-04-03T01:40:06;5;5;
57411;PMS5003;43247;52.828;-8.980;2023-04-03T01:41:05;6;6;
57411;PMS5003;43247;52.828;-8.980;2023-04-03T01:42:06;6;6;
57411;PMS5003;43247;52.828;-8.980;2023-04-03T01:43:06;5;5;
57411;PMS5003;43247;52.828;-8.980;2023-04-03T01:44:06;6;6;
57411;PMS5003;43247;52.828;-8.980;2023-04-03T01:45:07;5;5;
57411;PMS5003;43247;52.828;-8.980;2023-04-03T01:46:06;8;8;
57411;PMS5003;43247;52.828;-8.980;2023-04-03T01:47:07;6;6;
57411;PMS5003;43247;52.828;-8.980;2023-04-03T01:48:07;6;5;
57411;PMS5003;43247;52.828;-8.980;2023-04-03T01:49:07;4;4;
57411;PMS5003;43247;52.828;-8.980;2023-04-03T01:50:07;5;5;
57411;PMS5003;43247;52.828;-8.980;2023-04-03T01:51:07;6;6;
57411;PMS5003;43247;52.828;-8.980;2023-04-03T01:52:07;6;5;
57411;PMS5003;43247;52.828;-8.980;2023-04-03T01:53:08;5;5;
57411;PMS5003;43247;52.828;-8.980;2023-04-03T01:54:08;5;5;
57411;PMS5003;43247;52.828;-8.980;2023-04-03T01:55:08;5;4;
57411;PMS5003;43247;52.828;-8.980;2023-04-03T01:56:08;6;6;
57411;PMS5003;43247;52.828;-8.980;2023-04-03T01:57:08;9;7;
57411;PMS5003;43247;52.828;-8.980;2023-04-03T01:58:09;8;6;
57411;PMS5003;43247;52.828;-8.980;2023-04-03T01:59:09;4;4;
57411;PMS5003;43247;52.828;-8.980;2023-04-03T02:00:09;4;4;
57411;PMS5003;43247;52.828;-8.980;2023-04-03T02:01:09;6;6;
57411;PMS5003;43247;52.828;-8.980;2023-04-03T02:02:09;5;5;
57411;PMS5003;43247;52.828;-8.980;2023-04-03T02:03:09;5;5;
57411;PMS5003;43247;52.828;-8.980;2023-04-03T02:04:10;6;6;
57411;PMS5003;43247;52.828;-8.980;2023-04-03T02:05:10;6;5;
57411;PMS5003;43247;52.828;-8.980;2023-04-03T02:06:10;5;5;
57411;PMS5003;43247;52.828;-8.980;2023-04-03T02:07:10;5;5;
57411;PMS5003;43247;52.828;-8.980;2023-04-03T02:08:10;8;6;
57411;PMS5003;43247;52.828;-8.980;2023-04-03T02:09:11;8;7;
57411;PMS5003;43247;52.828;-8.980;2023-04-03T02:10:11;6;6;
57411;PMS5003;43247;52.828;-8.980;2023-04-03T02:11:11;7;7;
57411;PMS5003;43247;52.828;-8.980;2023-04-03T02:12:11;6;6;
57411;PMS5003;43247;52.828;-8.980;2023-04-03T02:13:11;6;6;
57411;PMS5003;43247;52.828;-8.980;2023-04-03T02:14:12;7;5;
57411;PMS5003;43247;52.828;-8.980;2023-04-03T02:15:12;9;6;
57411;PMS5003;43247;52.828;-8.980;2023-04-03T02:16:12;8;6;
57411;PMS5003;43247;52.828;-8.980;2023-04-03T02:17:12;4;4;
57411;PMS5003;43247;52.828;-8.980;2023-04-03T02:18:12;7;6;
57411;PMS5003;43247;52.828;-8.980;2023-04-03T02:19:12;7;6;
57411;PMS5003;43247;52.828;-8.980;2023-04-03T02:20:13;5;5;
57411;PMS5003;43247;52.828;-8.980;2023-04-03T02:21:13;5;5;
57411;PMS5003;43247;52.828;-8.980;2023-04-03T02:22:13;7;6;
57411;PMS5003;43247;52.828;-8.980;2023-04-03T02:23:13;4;4;
57411;PMS5003;43247;52.828;-8.980;2023-04-03T02:24:13;5;5;
57411;PMS5003;43247;52.828;-8.980;2023-04-03T02:25:14;8;6;
57411;PMS5003;43247;52.828;-8.980;2023-04-03T02:26:15;5;4;
57411;PMS5003;43247;52.828;-8.980;2023-04-03T02:27:14;6;6;
57411;PMS5003;43247;52.828;-8.980;2023-04-03T02:28:14;6;6;
57411;PMS5003;43247;52.828;-8.980;2023-04-03T02:29:14;6;6;
57411;PMS5003;43247;52.828;-8.980;2023-04-03T02:30:15;7;7;
57411;PMS5003;43247;52.828;-8.980;2023-04-03T02:31:15;8;7;
57411;PMS5003;43247;52.828;-8.980;2023-04-03T02:32:15;5;5;
57411;PMS5003;43247;52.828;-8.980;2023-04-03T02:33:15;5;4;
57411;PMS5003;43247;52.828;-8.980;2023-04-03T02:34:15;8;6;
57411;PMS5003;43247;52.828;-8.980;2023-04-03T02:35:16;5;5;
57411;PMS5003;43247;52.828;-8.980;2023-04-03T02:36:16;5;5;
57411;PMS5003;43247;52.828;-8.980;2023-04-03T02:37:16;4;4;
57411;PMS5003;43247;52.828;-8.980;2023-04-03T02:38:16;5;5;
57411;PMS5003;43247;52.828;-8.980;2023-04-03T02:39:16;5;5;
57411;PMS5003;43247;52.828;-8.980;2023-04-03T02:40:16;11;7;
57411;PMS5003;43247;52.828;-8.980;2023-04-03T02:41:17;4;4;
57411;PMS5003;43247;52.828;-8.980;2023-04-03T02:42:17;5;5;
57411;PMS5003;43247;52.828;-8.980;2023-04-03T02:43:17;5;4;
57411;PMS5003;43247;52.828;-8.980;2023-04-03T02:44:17;5;5;
57411;PMS5003;43247;52.828;-8.980;2023-04-03T02:45:17;5;5;
57411;PMS5003;43247;52.828;-8.980;2023-04-03T02:46:17;7;4;
57411;PMS5003;43247;52.828;-8.980;2023-04-03T02:47:18;6;6;
57411;PMS5003;43247;52.828;-8.980;2023-04-03T02:48:18;6;4;
57411;PMS5003;43247;52.828;-8.980;2023-04-03T02:49:18;6;6;
57411;PMS5003;43247;52.828;-8.980;2023-04-03T02:50:18;5;5;
57411;PMS5003;43247;52.828;-8.980;2023-04-03T02:51:18;5;5;
57411;PMS5003;43247;52.828;-8.980;2023-04-03T02:52:19;4;4;
57411;PMS5003;43247;52.828;-8.980;2023-04-03T02:53:19;5;5;
57411;PMS5003;43247;52.828;-8.980;2023-04-03T02:54:19;5;5;
57411;PMS5003;43247;52.828;-8.980;2023-04-03T02:55:19;5;5;
57411;PMS5003;43247;52.828;-8.980;2023-04-03T02:56:19;5;5;
57411;PMS5003;43247;52.828;-8.980;2023-04-03T02:57:20;4;4;
57411;PMS5003;43247;52.828;-8.980;2023-04-03T02:58:20;5;5;
57411;PMS5003;43247;52.828;-8.980;2023-04-03T02:59:20;6;5;
57411;PMS5003;43247;52.828;-8.980;2023-04-03T03:00:20;5;5;
57411;PMS5003;43247;52.828;-8.980;2023-04-03T03:01:20;5;5;
57411;PMS5003;43247;52.828;-8.980;2023-04-03T03:02:21;5;5;
57411;PMS5003;43247;52.828;-8.980;2023-04-03T03:03:21;5;5;
57411;PMS5003;43247;52.828;-8.980;2023-04-03T03:04:21;4;4;
57411;PMS5003;43247;52.828;-8.980;2023-04-03T03:05:21;4;4;
57411;PMS5003;43247;52.828;-8.980;2023-04-03T03:06:21;3;3;
57411;PMS5003;43247;52.828;-8.980;2023-04-03T03:07:22;8;7;
57411;PMS5003;43247;52.828;-8.980;2023-04-03T03:08:22;5;5;
57411;PMS5003;43247;52.828;-8.980;2023-04-03T03:09:22;4;4;
57411;PMS5003;43247;52.828;-8.980;2023-04-03T03:10:23;6;5;
57411;PMS5003;43247;52.828;-8.980;2023-04-03T03:11:23;3;3;
57411;PMS5003;43247;52.828;-8.980;2023-04-03T03:12:23;6;4;
57411;PMS5003;43247;52.828;-8.980;2023-04-03T03:13:23;5;5;
57411;PMS5003;43247;52.828;-8.980;2023-04-03T03:14:23;6;5;
57411;PMS5003;43247;52.828;-8.980;2023-04-03T03:15:24;4;4;
57411;PMS5003;43247;52.828;-8.980;2023-04-03T03:16:24;6;6;
57411;PMS5003;43247;52.828;-8.980;2023-04-03T03:17:24;5;5;
57411;PMS5003;43247;52.828;-8.980;2023-04-03T03:18:24;5;4;
57411;PMS5003;43247;52.828;-8.980;2023-04-03T03:19:24;5;5;
57411;PMS5003;43247;52.828;-8.980;2023-04-03T03:20:24;5;4;
57411;PMS5003;43247;52.828;-8.980;2023-04-03T03:21:25;4;4;
57411;PMS5003;43247;52.828;-8.980;2023-04-03T03:22:25;3;3;
57411;PMS5003;43247;52.828;-8.980;2023-04-03T03:23:25;4;4;
57411;PMS5003;43247;52.828;-8.980;2023-04-03T03:24:25;3;3;
57411;PMS5003;43247;52.828;-8.980;2023-04-03T03:25:25;3;3;
57411;PMS5003;43247;52.828;-8.980;2023-04-03T03:26:26;4;4;
57411;PMS5003;43247;52.828;-8.980;2023-04-03T03:27:26;3;3;
57411;PMS5003;43247;52.828;-8.980;2023-04-03T03:28:26;5;5;
57411;PMS5003;43247;52.828;-8.980;2023-04-03T03:29:26;5;4;
57411;PMS5003;43247;52.828;-8.980;2023-04-03T03:30:26;4;3;
57411;PMS5003;43247;52.828;-8.980;2023-04-03T03:31:26;5;5;
57411;PMS5003;43247;52.828;-8.980;2023-04-03T03:32:27;5;5;
57411;PMS5003;43247;52.828;-8.980;2023-04-03T03:33:27;3;3;
57411;PMS5003;43247;52.828;-8.980;2023-04-03T03:34:27;4;3;
57411;PMS5003;43247;52.828;-8.980;2023-04-03T03:35:27;6;5;
57411;PMS5003;43247;52.828;-8.980;2023-04-03T03:36:27;3;3;
57411;PMS5003;43247;52.828;-8.980;2023-04-03T03:37:28;4;4;
57411;PMS5003;43247;52.828;-8.980;2023-04-03T03:38:28;5;5;
57411;PMS5003;43247;52.828;-8.980;2023-04-03T03:39:28;3;3;
57411;PMS5003;43247;52.828;-8.980;2023-04-03T03:40:28;4;4;
57411;PMS5003;43247;52.828;-8.980;2023-04-03T03:41:28;4;4;
57411;PMS5003;43247;52.828;-8.980;2023-04-03T03:42:28;4;3;
57411;PMS5003;43247;52.828;-8.980;2023-04-03T03:43:29;3;3;
57411;PMS5003;43247;52.828;-8.980;2023-04-03T03:44:29;2;2;
57411;PMS5003;43247;52.828;-8.980;2023-04-03T03:45:29;5;3;
57411;PMS5003;43247;52.828;-8.980;2023-04-03T03:46:29;3;3;
57411;PMS5003;43247;52.828;-8.980;2023-04-03T03:47:29;3;3;
57411;PMS5003;43247;52.828;-8.980;2023-04-03T03:48:29;4;4;
57411;PMS5003;43247;52.828;-8.980;2023-04-03T03:49:30;6;4;
57411;PMS5003;43247;52.828;-8.980;2023-04-03T03:50:30;4;4;
57411;PMS5003;43247;52.828;-8.980;2023-04-03T03:51:30;3;3;
57411;PMS5003;43247;52.828;-8.980;2023-04-03T03:52:30;3;3;
57411;PMS5003;43247;52.828;-8.980;2023-04-03T03:53:30;3;3;
57411;PMS5003;43247;52.828;-8.980;2023-04-03T03:54:30;4;4;
57411;PMS5003;43247;52.828;-8.980;2023-04-03T03:55:31;3;3;
57411;PMS5003;43247;52.828;-8.980;2023-04-03T03:56:31;5;5;
57411;PMS5003;43247;52.828;-8.980;2023-04-03T03:57:31;4;4;
57411;PMS5003;43247;52.828;-8.980;2023-04-03T03:58:31;2;2;
57411;PMS5003;43247;52.828;-8.980;2023-04-03T03:59:31;4;4;
57411;PMS5003;43247;52.828;-8.980;2023-04-03T04:00:32;5;5;
57411;PMS5003;43247;52.828;-8.980;2023-04-03T04:01:32;3;3;
57411;PMS5003;43247;52.828;-8.980;2023-04-03T04:02:32;5;5;
57411;PMS5003;43247;52.828;-8.980;2023-04-03T04:03:32;3;3;
57411;PMS5003;43247;52.828;-8.980;2023-04-03T04:04:32;5;3;
57411;PMS5003;43247;52.828;-8.980;2023-04-03T04:05:32;3;3;
57411;PMS5003;43247;52.828;-8.980;2023-04-03T04:06:32;4;3;
57411;PMS5003;43247;52.828;-8.980;2023-04-03T04:07:33;5;5;
57411;PMS5003;43247;52.828;-8.980;2023-04-03T04:08:33;5;4;
57411;PMS5003;43247;52.828;-8.980;2023-04-03T04:09:33;3;3;
57411;PMS5003;43247;52.828;-8.980;2023-04-03T04:10:33;4;4;
57411;PMS5003;43247;52.828;-8.980;2023-04-03T04:11:33;4;4;
57411;PMS5003;43247;52.828;-8.980;2023-04-03T04:12:33;5;4;
57411;PMS5003;43247;52.828;-8.980;2023-04-03T04:13:34;4;4;
57411;PMS5003;43247;52.828;-8.980;2023-04-03T04:14:34;5;4;
57411;PMS5003;43247;52.828;-8.980;2023-04-03T04:15:35;4;4;
57411;PMS5003;43247;52.828;-8.980;2023-04-03T04:16:35;4;4;
57411;PMS5003;43247;52.828;-8.980;2023-04-03T04:17:35;4;4;
57411;PMS5003;43247;52.828;-8.980;2023-04-03T04:18:35;5;5;
57411;PMS5003;43247;52.828;-8.980;2023-04-03T04:19:35;4;4;
57411;PMS5003;43247;52.828;-8.980;2023-04-03T04:20:35;4;4;
57411;PMS5003;43247;52.828;-8.980;2023-04-03T04:21:36;6;5;
57411;PMS5003;43247;52.828;-8.980;2023-04-03T04:22:36;3;3;
57411;PMS5003;43247;52.828;-8.980;2023-04-03T04:23:36;5;3;
57411;PMS5003;43247;52.828;-8.980;2023-04-03T04:24:36;3;3;
57411;PMS5003;43247;52.828;-8.980;2023-04-03T04:25:36;3;3;
57411;PMS5003;43247;52.828;-8.980;2023-04-03T04:26:36;4;4;
57411;PMS5003;43247;52.828;-8.980;2023-04-03T04:27:37;4;4;
57411;PMS5003;43247;52.828;-8.980;2023-04-03T04:28:37;4;4;
57411;PMS5003;43247;52.828;-8.980;2023-04-03T04:29:37;4;3;
57411;PMS5003;43247;52.828;-8.980;2023-04-03T04:30:37;5;5;
57411;PMS5003;43247;52.828;-8.980;2023-04-03T04:31:37;5;5;
57411;PMS5003;43247;52.828;-8.980;2023-04-03T04:32:37;6;5;
57411;PMS5003;43247;52.828;-8.980;2023-04-03T04:33:38;6;5;
57411;PMS5003;43247;52.828;-8.980;2023-04-03T04:34:38;4;4;
57411;PMS5003;43247;52.828;-8.980;2023-04-03T04:35:38;7;5;
57411;PMS5003;43247;52.828;-8.980;2023-04-03T04:36:38;2;2;
57411;PMS5003;43247;52.828;-8.980;2023-04-03T04:37:38;4;4;
57411;PMS5003;43247;52.828;-8.980;2023-04-03T04:38:38;4;4;
57411;PMS5003;43247;52.828;-8.980;2023-04-03T04:39:39;4;3;
57411;PMS5003;43247;52.828;-8.980;2023-04-03T04:40:39;4;4;
57411;PMS5003;43247;52.828;-8.980;2023-04-03T04:41:39;4;4;
57411;PMS5003;43247;52.828;-8.980;2023-04-03T04:42:39;4;3;
57411;PMS5003;43247;52.828;-8.980;2023-04-03T04:43:39;3;3;
57411;PMS5003;43247;52.828;-8.980;2023-04-03T04:44:40;2;2;
57411;PMS5003;43247;52.828;-8.980;2023-04-03T04:45:40;5;5;
57411;PMS5003;43247;52.828;-8.980;2023-04-03T04:46:40;5;5;
57411;PMS5003;43247;52.828;-8.980;2023-04-03T04:47:40;4;4;
57411;PMS5003;43247;52.828;-8.980;2023-04-03T04:48:40;3;3;
57411;PMS5003;43247;52.828;-8.980;2023-04-03T04:49:40;3;3;
57411;PMS5003;43247;52.828;-8.980;2023-04-03T04:50:41;3;3;
57411;PMS5003;43247;52.828;-8.980;2023-04-03T04:51:41;5;5;
57411;PMS5003;43247;52.828;-8.980;2023-04-03T04:52:41;6;5;
57411;PMS5003;43247;52.828;-8.980;2023-04-03T04:53:41;3;3;
57411;PMS5003;43247;52.828;-8.980;2023-04-03T04:54:41;3;3;
57411;PMS5003;43247;52.828;-8.980;2023-04-03T04:55:41;4;4;
57411;PMS5003;43247;52.828;-8.980;2023-04-03T04:56:42;3;3;
57411;PMS5003;43247;52.828;-8.980;2023-04-03T04:57:42;3;3;
57411;PMS5003;43247;52.828;-8.980;2023-04-03T04:58:42;3;3;
57411;PMS5003;43247;52.828;-8.980;2023-04-03T04:59:42;4;3;
57411;PMS5003;43247;52.828;-8.980;2023-04-03T05:00:42;3;3;
57411;PMS5003;43247;52.828;-8.980;2023-04-03T05:01:42;4;4;
57411;PMS5003;43247;52.828;-8.980;2023-04-03T05:02:43;4;4;
57411;PMS5003;43247;52.828;-8.980;2023-04-03T05:03:43;4;4;
57411;PMS5003;43247;52.828;-8.980;2023-04-03T05:04:43;3;3;
57411;PMS5003;43247;52.828;-8.980;2023-04-03T05:05:43;3;3;
57411;PMS5003;43247;52.828;-8.980;2023-04-03T05:06:43;4;4;
57411;PMS5003;43247;52.828;-8.980;2023-04-03T05:07:43;3;3;
57411;PMS5003;43247;52.828;-8.980;2023-04-03T05:08:44;4;4;
57411;PMS5003;43247;52.828;-8.980;2023-04-03T05:09:44;4;4;
57411;PMS5003;43247;52.828;-8.980;2023-04-03T05:10:44;4;3;
57411;PMS5003;43247;52.828;-8.980;2023-04-03T05:11:44;2;2;
57411;PMS5003;43247;52.828;-8.980;2023-04-03T05:12:45;3;3;
57411;PMS5003;43247;52.828;-8.980;2023-04-03T05:13:44;3;3;
57411;PMS5003;43247;52.828;-8.980;2023-04-03T05:14:45;4;3;
57411;PMS5003;43247;52.828;-8.980;2023-04-03T05:15:45;3;3;
57411;PMS5003;43247;52.828;-8.980;2023-04-03T05:16:45;3;2;
57411;PMS5003;43247;52.828;-8.980;2023-04-03T05:17:45;4;4;
57411;PMS5003;43247;52.828;-8.980;2023-04-03T05:18:45;3;3;
57411;PMS5003;43247;52.828;-8.980;2023-04-03T05:19:45;4;4;
57411;PMS5003;43247;52.828;-8.980;2023-04-03T05:20:47;4;4;
57411;PMS5003;43247;52.828;-8.980;2023-04-03T05:21:46;4;4;
57411;PMS5003;43247;52.828;-8.980;2023-04-03T05:22:46;3;3;
57411;PMS5003;43247;52.828;-8.980;2023-04-03T05:23:46;3;3;
57411;PMS5003;43247;52.828;-8.980;2023-04-03T05:24:46;3;3;
57411;PMS5003;43247;52.828;-8.980;2023-04-03T05:25:46;2;2;
57411;PMS5003;43247;52.828;-8.980;2023-04-03T05:26:47;1;1;
57411;PMS5003;43247;52.828;-8.980;2023-04-03T05:27:47;2;2;
57411;PMS5003;43247;52.828;-8.980;2023-04-03T05:28:47;2;2;
57411;PMS5003;43247;52.828;-8.980;2023-04-03T05:29:47;4;3;
57411;PMS5003;43247;52.828;-8.980;2023-04-03T05:30:52;4;3;
57411;PMS5003;43247;52.828;-8.980;2023-04-03T05:31:48;3;3;
57411;PMS5003;43247;52.828;-8.980;2023-04-03T05:32:48;2;2;
57411;PMS5003;43247;52.828;-8.980;2023-04-03T05:33:48;3;3;
57411;PMS5003;43247;52.828;-8.980;2023-04-03T05:34:48;2;2;
57411;PMS5003;43247;52.828;-8.980;2023-04-03T05:35:48;2;2;
57411;PMS5003;43247;52.828;-8.980;2023-04-03T05:36:48;2;2;
57411;PMS5003;43247;52.828;-8.980;2023-04-03T05:37:49;3;3;
57411;PMS5003;43247;52.828;-8.980;2023-04-03T05:38:49;2;2;
57411;PMS5003;43247;52.828;-8.980;2023-04-03T05:39:49;4;2;
57411;PMS5003;43247;52.828;-8.980;2023-04-03T05:40:49;2;2;
57411;PMS5003;43247;52.828;-8.980;2023-04-03T05:41:49;4;4;
57411;PMS5003;43247;52.828;-8.980;2023-04-03T05:42:50;2;2;
57411;PMS5003;43247;52.828;-8.980;2023-04-03T05:43:50;3;3;
57411;PMS5003;43247;52.828;-8.980;2023-04-03T05:44:50;3;3;
57411;PMS5003;43247;52.828;-8.980;2023-04-03T05:45:50;2;1;
57411;PMS5003;43247;52.828;-8.980;2023-04-03T05:46:50;2;2;
57411;PMS5003;43247;52.828;-8.980;2023-04-03T05:47:50;2;2;
57411;PMS5003;43247;52.828;-8.980;2023-04-03T05:48:51;2;2;
57411;PMS5003;43247;52.828;-8.980;2023-04-03T05:49:51;3;2;
57411;PMS5003;43247;52.828;-8.980;2023-04-03T05:50:51;1;1;
57411;PMS5003;43247;52.828;-8.980;2023-04-03T05:51:51;3;3;
57411;PMS5003;43247;52.828;-8.980;2023-04-03T05:52:52;3;3;
57411;PMS5003;43247;52.828;-8.980;2023-04-03T05:53:52;3;3;
57411;PMS5003;43247;52.828;-8.980;2023-04-03T05:54:52;3;2;
57411;PMS5003;43247;52.828;-8.980;2023-04-03T05:55:52;2;2;
57411;PMS5003;43247;52.828;-8.980;2023-04-03T05:56:52;2;2;
57411;PMS5003;43247;52.828;-8.980;2023-04-03T05:57:52;3;3;
57411;PMS5003;43247;52.828;-8.980;2023-04-03T05:58:52;3;3;
57411;PMS5003;43247;52.828;-8.980;2023-04-03T05:59:53;1;1;
57411;PMS5003;43247;52.828;-8.980;2023-04-03T06:00:53;3;2;
57411;PMS5003;43247;52.828;-8.980;2023-04-03T06:01:53;2;2;
57411;PMS5003;43247;52.828;-8.980;2023-04-03T06:02:53;2;2;
57411;PMS5003;43247;52.828;-8.980;2023-04-03T06:03:53;2;2;
57411;PMS5003;43247;52.828;-8.980;2023-04-03T06:04:54;2;2;
57411;PMS5003;43247;52.828;-8.980;2023-04-03T06:05:54;2;2;
57411;PMS5003;43247;52.828;-8.980;2023-04-03T06:06:54;2;2;
57411;PMS5003;43247;52.828;-8.980;2023-04-03T06:07:54;2;2;
57411;PMS5003;43247;52.828;-8.980;2023-04-03T06:08:54;2;2;
57411;PMS5003;43247;52.828;-8.980;2023-04-03T06:09:55;2;2;
57411;PMS5003;43247;52.828;-8.980;2023-04-03T06:10:55;2;2;
57411;PMS5003;43247;52.828;-8.980;2023-04-03T06:11:55;4;4;
57411;PMS5003;43247;52.828;-8.980;2023-04-03T06:12:55;2;2;
57411;PMS5003;43247;52.828;-8.980;2023-04-03T06:13:55;4;2;
57411;PMS5003;43247;52.828;-8.980;2023-04-03T06:14:55;3;3;
57411;PMS5003;43247;52.828;-8.980;2023-04-03T06:15:56;2;2;
57411;PMS5003;43247;52.828;-8.980;2023-04-03T06:16:56;2;2;
57411;PMS5003;43247;52.828;-8.980;2023-04-03T06:17:56;3;3;
57411;PMS5003;43247;52.828;-8.980;2023-04-03T06:18:56;2;2;
57411;PMS5003;43247;52.828;-8.980;2023-04-03T06:19:56;4;3;
57411;PMS5003;43247;52.828;-8.980;2023-04-03T06:20:56;2;2;
57411;PMS5003;43247;52.828;-8.980;2023-04-03T06:21:57;4;4;
57411;PMS5003;43247;52.828;-8.980;2023-04-03T06:22:57;3;3;
57411;PMS5003;43247;52.828;-8.980;2023-04-03T06:23:57;2;2;
57411;PMS5003;43247;52.828;-8.980;2023-04-03T06:24:57;3;3;
57411;PMS5003;43247;52.828;-8.980;2023-04-03T06:25:57;2;2;
57411;PMS5003;43247;52.828;-8.980;2023-04-03T06:26:58;2;2;
57411;PMS5003;43247;52.828;-8.980;2023-04-03T06:27:58;3;3;
57411;PMS5003;43247;52.828;-8.980;2023-04-03T06:28:58;3;3;
57411;PMS5003;43247;52.828;-8.980;2023-04-03T06:29:58;2;2;
57411;PMS5003;43247;52.828;-8.980;2023-04-03T06:30:58;3;3;
57411;PMS5003;43247;52.828;-8.980;2023-04-03T06:31:58;3;3;
57411;PMS5003;43247;52.828;-8.980;2023-04-03T06:32:59;3;3;
57411;PMS5003;43247;52.828;-8.980;2023-04-03T06:33:59;3;3;
57411;PMS5003;43247;52.828;-8.980;2023-04-03T06:34:59;2;2;
57411;PMS5003;43247;52.828;-8.980;2023-04-03T06:36:00;2;2;
57411;PMS5003;43247;52.828;-8.980;2023-04-03T06:36:59;4;4;
57411;PMS5003;43247;52.828;-8.980;2023-04-03T06:37:59;2;2;
57411;PMS5003;43247;52.828;-8.980;2023-04-03T06:39:00;3;3;
57411;PMS5003;43247;52.828;-8.980;2023-04-03T06:40:00;2;2;
57411;PMS5003;43247;52.828;-8.980;2023-04-03T06:41:00;4;3;
57411;PMS5003;43247;52.828;-8.980;2023-04-03T06:42:00;3;3;
57411;PMS5003;43247;52.828;-8.980;2023-04-03T06:43:00;2;2;
57411;PMS5003;43247;52.828;-8.980;2023-04-03T06:44:01;4;4;
57411;PMS5003;43247;52.828;-8.980;2023-04-03T06:45:01;5;5;
57411;PMS5003;43247;52.828;-8.980;2023-04-03T06:46:01;3;3;
57411;PMS5003;43247;52.828;-8.980;2023-04-03T06:47:01;5;4;
57411;PMS5003;43247;52.828;-8.980;2023-04-03T06:48:01;4;4;
57411;PMS5003;43247;52.828;-8.980;2023-04-03T06:49:01;4;4;